Time;durP1;ratioP1;P1;durP2;ratioP2;P2;SDS_P1;SDS_P2;PMS_P1;PMS_P2;Temp;Humidity;BMP_temperature;BMP_pressure;BME280_temperature;BME280_humidity;BME280_pressure;Samples;Min_cycle;Max_cycle;Signal;HPM_P1;HPM_P2
2022/02/18 00:01:00;;;;;;;4.17;0.80;;;5.20;99.90;;;;;;4999131;28;20195;-80
2022/02/18 00:03:27;;;;;;;2.67;0.80;;;5.20;99.90;;;;;;4997775;28;20246;-78
2022/02/18 00:05:53;;;;;;;2.23;0.73;;;5.30;99.90;;;;;;5014999;28;20676;-78
2022/02/18 00:08:19;;;;;;;2.80;0.73;;;5.30;99.90;;;;;;5016155;28;20223;-81
2022/02/18 00:10:45;;;;;;;5.33;0.90;;;5.20;99.90;;;;;;5000721;28;20188;-78
2022/02/18 00:13:12;;;;;;;2.63;0.87;;;5.20;99.90;;;;;;5014728;28;20186;-80
2022/02/18 00:15:38;;;;;;;3.00;0.80;;;5.20;99.90;;;;;;4998927;28;20184;-79
2022/02/18 00:18:05;;;;;;;3.30;1.00;;;5.20;99.90;;;;;;5000327;28;20681;-77
2022/02/18 00:20:32;;;;;;;4.90;0.83;;;5.10;99.90;;;;;;5001848;28;20189;-78
2022/02/18 00:22:59;;;;;;;4.93;1.23;;;5.10;99.90;;;;;;4997324;28;20212;-81
2022/02/18 00:25:25;;;;;;;3.63;0.90;;;5.10;99.90;;;;;;5014740;28;20176;-77
2022/02/18 00:27:50;;;;;;;3.03;0.87;;;5.10;99.90;;;;;;5014572;28;20660;-79
2022/02/18 00:30:16;;;;;;;3.93;0.70;;;5.20;99.90;;;;;;5014581;28;20702;-80
2022/02/18 00:32:41;;;;;;;2.87;0.90;;;5.30;99.90;;;;;;5000822;28;20183;-78
2022/02/18 00:35:07;;;;;;;2.87;0.70;;;5.30;99.90;;;;;;4998670;28;20666;-78
2022/02/18 00:37:34;;;;;;;2.20;0.60;;;5.40;99.90;;;;;;5000597;28;20179;-78
2022/02/18 00:39:59;;;;;;;2.60;0.67;;;5.50;99.90;;;;;;5006058;28;20654;-78
2022/02/18 00:42:26;;;;;;;3.57;0.80;;;5.50;99.90;;;;;;4999289;28;20270;-76
2022/02/18 00:44:52;;;;;;;3.77;0.80;;;5.50;99.90;;;;;;5000584;28;20268;-78
2022/02/18 00:47:18;;;;;;;4.57;1.07;;;5.60;99.90;;;;;;4999077;28;20243;-79
2022/02/18 00:49:44;;;;;;;1.90;1.33;;;5.50;99.90;;;;;;4997217;28;20196;-78
2022/02/18 00:52:10;;;;;;;5.57;1.20;;;5.50;99.90;;;;;;4999867;28;20184;-78
2022/02/18 00:54:36;;;;;;;4.43;1.40;;;5.60;99.90;;;;;;4999158;28;20183;-78
2022/02/18 00:57:01;;;;;;;4.27;1.23;;;5.60;99.90;;;;;;5000137;28;20184;-81
2022/02/18 00:59:27;;;;;;;6.20;1.23;;;5.60;99.90;;;;;;4996899;28;20211;-77
2022/02/18 01:01:52;;;;;;;3.83;1.03;;;5.70;99.90;;;;;;5015149;28;20258;-78
2022/02/18 01:04:18;;;;;;;5.43;1.20;;;5.70;99.90;;;;;;5012080;28;20253;-78
2022/02/18 01:06:44;;;;;;;3.27;1.10;;;5.70;99.90;;;;;;5015182;28;20185;-79
2022/02/18 01:09:10;;;;;;;4.17;1.40;;;5.80;99.90;;;;;;5015861;28;20203;-81
2022/02/18 01:11:36;;;;;;;3.30;0.87;;;5.80;99.90;;;;;;4999479;28;20192;-79
2022/02/18 01:14:04;;;;;;;5.27;1.17;;;5.80;99.90;;;;;;4999541;28;20739;-80
2022/02/18 01:16:29;;;;;;;5.10;1.90;;;5.80;99.90;;;;;;5000434;28;20196;-80
2022/02/18 01:18:55;;;;;;;4.67;1.13;;;5.70;99.90;;;;;;5015458;28;20743;-81
2022/02/18 01:21:21;;;;;;;3.43;1.20;;;5.70;99.90;;;;;;5015151;28;20275;-78
2022/02/18 01:23:47;;;;;;;3.90;1.13;;;5.80;99.90;;;;;;5000500;28;20208;-78
2022/02/18 01:26:13;;;;;;;3.63;1.10;;;5.80;99.90;;;;;;5000289;28;20261;-80
2022/02/18 01:28:38;;;;;;;3.70;1.00;;;5.80;99.90;;;;;;5000894;28;20890;-79
2022/02/18 01:31:04;;;;;;;3.93;1.20;;;5.80;99.90;;;;;;5015327;28;20187;-79
2022/02/18 01:33:30;;;;;;;5.13;1.30;;;5.80;99.90;;;;;;5014675;28;20282;-79
2022/02/18 01:35:55;;;;;;;5.97;1.30;;;5.80;99.90;;;;;;4999478;28;20198;-80
2022/02/18 01:38:21;;;;;;;4.63;1.43;;;5.90;99.90;;;;;;4995637;28;20717;-80
2022/02/18 01:40:47;;;;;;;5.80;1.23;;;5.80;99.90;;;;;;5014236;28;20557;-79
2022/02/18 01:43:12;;;;;;;4.00;1.53;;;5.80;99.90;;;;;;5000009;28;20227;-80
2022/02/18 01:45:38;;;;;;;3.80;1.60;;;5.70;99.90;;;;;;4998418;28;20195;-80
2022/02/18 01:48:04;;;;;;;6.53;1.53;;;5.70;99.90;;;;;;4999507;28;20198;-78
2022/02/18 01:50:30;;;;;;;6.53;1.50;;;5.60;99.90;;;;;;5001741;28;20184;-79
2022/02/18 01:52:56;;;;;;;5.97;2.20;;;5.60;99.90;;;;;;4998965;28;20299;-79
2022/02/18 01:55:24;;;;;;;6.17;1.60;;;5.50;99.90;;;;;;4999391;28;20187;-79
2022/02/18 01:57:52;;;;;;;3.03;1.43;;;5.50;99.90;;;;;;4999665;28;20254;-79
2022/02/18 02:00:20;;;;;;;2.97;1.13;;;5.40;99.90;;;;;;4998415;28;20208;-79
2022/02/18 02:02:46;;;;;;;3.40;1.20;;;5.40;99.90;;;;;;4997633;28;20219;-80
2022/02/18 02:05:12;;;;;;;5.43;1.67;;;5.40;99.90;;;;;;4997336;28;20666;-81
2022/02/18 02:07:39;;;;;;;3.57;1.43;;;5.30;99.90;;;;;;5013771;28;20223;-81
2022/02/18 02:10:06;;;;;;;5.90;1.73;;;5.40;99.90;;;;;;5013397;28;20204;-77
2022/02/18 02:12:41;;;;;;;4.17;1.70;;;5.40;99.90;;;;;;5015455;28;20188;-82
2022/02/18 02:15:11;;;;;;;2.70;1.30;;;5.40;99.90;;;;;;4998217;28;20180;-79
2022/02/18 02:17:37;;;;;;;3.87;1.53;;;5.30;99.90;;;;;;4999624;28;20200;-80
2022/02/18 02:20:05;;;;;;;3.83;1.30;;;5.30;99.90;;;;;;5004647;28;20287;-79
2022/02/18 02:22:30;;;;;;;3.03;1.33;;;5.30;99.90;;;;;;5013497;28;20184;-80
2022/02/18 02:24:57;;;;;;;4.77;1.43;;;5.40;99.90;;;;;;4998873;28;20249;-80
2022/02/18 02:27:22;;;;;;;2.50;1.30;;;5.20;99.90;;;;;;5014328;28;20187;-78
2022/02/18 02:29:49;;;;;;;4.27;1.63;;;5.20;99.90;;;;;;4998450;28;20666;-80
2022/02/18 02:32:15;;;;;;;6.07;2.40;;;5.20;99.90;;;;;;4998329;28;20245;-79
2022/02/18 02:34:42;;;;;;;3.80;1.53;;;5.20;99.90;;;;;;5000442;28;20271;-78
2022/02/18 02:37:07;;;;;;;5.33;1.30;;;5.20;99.90;;;;;;4998860;28;20191;-80
2022/02/18 02:39:33;;;;;;;5.07;1.90;;;5.20;99.90;;;;;;4999800;28;20231;-80
2022/02/18 02:42:03;;;;;;;6.13;1.50;;;5.30;99.90;;;;;;4999117;28;20568;-81
2022/02/18 02:44:29;;;;;;;4.37;1.30;;;5.30;99.90;;;;;;4999574;28;20281;-80
2022/02/18 02:46:55;;;;;;;2.77;1.30;;;5.20;99.90;;;;;;4999726;28;20177;-77
2022/02/18 02:49:21;;;;;;;4.13;1.60;;;5.30;99.90;;;;;;5000738;28;20200;-79
2022/02/18 02:51:46;;;;;;;6.17;1.40;;;5.20;99.90;;;;;;5005358;28;20211;-78
2022/02/18 02:54:12;;;;;;;6.53;1.63;;;5.20;99.90;;;;;;5000507;28;20638;-80
2022/02/18 02:56:38;;;;;;;2.17;1.30;;;5.20;99.90;;;;;;5011509;28;20191;-78
2022/02/18 02:59:04;;;;;;;4.83;1.53;;;5.20;99.90;;;;;;4997354;28;20956;-79
2022/02/18 03:01:29;;;;;;;3.73;1.23;;;5.10;99.90;;;;;;4997496;28;20195;-79
2022/02/18 03:03:55;;;;;;;2.37;1.40;;;5.20;99.90;;;;;;4999954;28;20199;-80
2022/02/18 03:06:21;;;;;;;3.10;1.43;;;5.20;99.90;;;;;;4997590;28;20267;-78
2022/02/18 03:08:47;;;;;;;3.57;1.67;;;5.20;99.90;;;;;;5012677;28;20701;-79
2022/02/18 03:11:16;;;;;;;4.57;1.50;;;5.20;99.90;;;;;;5012070;28;20177;-79
2022/02/18 03:13:46;;;;;;;8.63;1.90;;;5.20;99.90;;;;;;5013414;28;20180;-81
2022/02/18 03:16:12;;;;;;;3.10;1.40;;;5.20;99.90;;;;;;5001373;28;20227;-81
2022/02/18 03:18:38;;;;;;;4.47;1.63;;;5.10;99.90;;;;;;5002310;28;20210;-81
2022/02/18 03:21:05;;;;;;;4.10;1.43;;;5.00;99.90;;;;;;5017085;28;20601;-81
2022/02/18 03:23:31;;;;;;;4.63;1.73;;;5.00;99.90;;;;;;5001453;28;21316;-80
2022/02/18 03:25:56;;;;;;;5.73;1.67;;;4.90;99.90;;;;;;5017256;28;20734;-80
2022/02/18 03:28:22;;;;;;;4.97;1.70;;;4.90;99.90;;;;;;5017211;28;20294;-78
2022/02/18 03:30:48;;;;;;;4.57;1.80;;;5.00;99.90;;;;;;5001250;28;20180;-79
2022/02/18 03:33:14;;;;;;;4.27;1.80;;;4.90;99.90;;;;;;5000131;28;20659;-80
2022/02/18 03:35:41;;;;;;;3.90;2.00;;;4.70;99.90;;;;;;5001256;28;20593;-82
2022/02/18 03:38:07;;;;;;;3.83;1.97;;;4.70;99.90;;;;;;4998659;28;20261;-77
2022/02/18 03:40:33;;;;;;;3.83;2.20;;;4.70;99.90;;;;;;5000304;28;20188;-78
2022/02/18 03:42:59;;;;;;;6.70;2.40;;;4.60;99.90;;;;;;5001337;28;20220;-82
2022/02/18 03:45:26;;;;;;;4.10;1.90;;;4.60;99.90;;;;;;4999877;28;20180;-80
2022/02/18 03:47:51;;;;;;;4.97;2.43;;;4.60;99.90;;;;;;5007475;28;20208;-80
2022/02/18 03:50:17;;;;;;;5.13;1.87;;;4.50;99.90;;;;;;5015329;28;20303;-80
2022/02/18 03:52:44;;;;;;;5.63;1.97;;;4.50;99.90;;;;;;4998814;28;20195;-78
2022/02/18 03:55:09;;;;;;;6.77;2.63;;;4.50;99.90;;;;;;5000003;28;20184;-81
2022/02/18 03:57:35;;;;;;;4.33;2.30;;;4.40;99.90;;;;;;4999050;28;21058;-80
2022/02/18 04:00:01;;;;;;;9.57;2.63;;;4.30;99.90;;;;;;4998483;28;20844;-80
2022/02/18 04:02:26;;;;;;;4.33;2.20;;;4.40;99.90;;;;;;4999440;28;20215;-79
2022/02/18 04:04:53;;;;;;;4.00;2.33;;;4.50;99.90;;;;;;4999026;28;20271;-78
2022/02/18 04:07:19;;;;;;;8.33;2.33;;;4.40;99.90;;;;;;5015390;28;20176;-79
2022/02/18 04:09:44;;;;;;;6.60;2.13;;;4.50;99.90;;;;;;5000482;28;20214;-77
2022/02/18 04:12:10;;;;;;;7.40;2.43;;;4.50;99.90;;;;;;5001153;28;20185;-80
2022/02/18 04:14:35;;;;;;;3.70;1.90;;;4.40;99.90;;;;;;4999647;28;20195;-80
2022/02/18 04:17:01;;;;;;;6.23;2.60;;;4.40;99.90;;;;;;4999600;28;20195;-78
2022/02/18 04:19:27;;;;;;;5.63;2.23;;;4.40;99.90;;;;;;5014303;28;20215;-79
2022/02/18 04:21:52;;;;;;;4.70;2.57;;;4.30;99.90;;;;;;4998703;28;20230;-80
2022/02/18 04:24:18;;;;;;;9.13;2.57;;;4.30;99.90;;;;;;5013034;28;20204;-79
2022/02/18 04:26:43;;;;;;;8.50;2.40;;;4.30;99.90;;;;;;4996221;28;20821;-81
2022/02/18 04:29:11;;;;;;;5.40;2.27;;;4.10;99.90;;;;;;4998104;28;20295;-78
2022/02/18 04:31:37;;;;;;;7.10;2.73;;;4.10;99.90;;;;;;5000319;28;20184;-79
2022/02/18 04:34:02;;;;;;;9.60;2.10;;;4.00;99.90;;;;;;5000325;28;20184;-79
2022/02/18 04:36:28;;;;;;;4.80;2.50;;;3.90;99.90;;;;;;4999486;28;20196;-77
2022/02/18 04:38:54;;;;;;;3.87;2.47;;;4.00;99.90;;;;;;5002932;28;20262;-78
2022/02/18 04:41:23;;;;;;;5.37;2.37;;;4.00;99.90;;;;;;5000657;28;20205;-78
2022/02/18 04:43:48;;;;;;;6.43;2.73;;;3.90;99.90;;;;;;5002692;28;20262;-79
2022/02/18 04:46:14;;;;;;;6.70;2.47;;;3.80;99.90;;;;;;4999436;28;20658;-79
2022/02/18 04:48:40;;;;;;;7.67;2.70;;;3.80;99.90;;;;;;5001660;28;20473;-77
2022/02/18 04:51:05;;;;;;;6.60;2.67;;;3.80;99.90;;;;;;5000274;28;20184;-80
2022/02/18 04:53:31;;;;;;;6.67;2.50;;;3.80;99.90;;;;;;5002197;28;20262;-79
2022/02/18 04:55:56;;;;;;;7.10;2.90;;;3.90;99.90;;;;;;5001341;28;20741;-77
2022/02/18 04:58:22;;;;;;;6.00;2.47;;;3.80;99.90;;;;;;5001523;28;20688;-77
2022/02/18 05:00:47;;;;;;;6.23;2.93;;;3.80;99.90;;;;;;5003230;28;20637;-82
2022/02/18 05:03:13;;;;;;;6.03;2.40;;;3.80;99.90;;;;;;5001178;28;20215;-79
2022/02/18 05:05:39;;;;;;;6.37;2.40;;;3.80;99.90;;;;;;4999021;28;20195;-80
2022/02/18 05:08:05;;;;;;;8.43;2.60;;;3.70;99.90;;;;;;4999713;28;20195;-79
2022/02/18 05:10:30;;;;;;;7.23;2.50;;;3.70;99.90;;;;;;5002063;28;20268;-81
2022/02/18 05:12:56;;;;;;;4.27;2.47;;;3.70;99.90;;;;;;5000907;28;20185;-79
2022/02/18 05:15:22;;;;;;;4.43;2.67;;;3.70;99.90;;;;;;4999431;28;20192;-79
2022/02/18 05:17:48;;;;;;;7.40;3.07;;;3.70;99.90;;;;;;5002493;28;20753;-77
2022/02/18 05:20:17;;;;;;;4.90;2.37;;;3.80;99.90;;;;;;5017345;28;20297;-78
2022/02/18 05:22:44;;;;;;;6.93;2.50;;;3.80;99.90;;;;;;5019493;28;20194;-79
2022/02/18 05:25:10;;;;;;;6.27;2.63;;;3.90;99.90;;;;;;5018966;28;20183;-78
2022/02/18 05:27:36;;;;;;;6.30;2.50;;;3.90;99.90;;;;;;5016544;28;20188;-79
2022/02/18 05:30:03;;;;;;;9.53;3.00;;;3.90;99.90;;;;;;4999876;28;20283;-79
2022/02/18 05:32:29;;;;;;;6.30;2.80;;;4.00;99.90;;;;;;5014386;28;20212;-81
2022/02/18 05:34:54;;;;;;;4.80;2.67;;;4.00;99.90;;;;;;5007277;28;20604;-81
2022/02/18 05:37:20;;;;;;;7.27;2.90;;;4.00;99.90;;;;;;5002472;28;20252;-78
2022/02/18 05:39:47;;;;;;;4.40;2.70;;;3.90;99.90;;;;;;4998907;28;20203;-78
2022/02/18 05:42:13;;;;;;;7.90;3.10;;;3.90;99.90;;;;;;5002053;28;20180;-79
2022/02/18 05:44:38;;;;;;;5.93;2.90;;;3.80;99.90;;;;;;5000221;28;20694;-78
2022/02/18 05:47:04;;;;;;;7.90;3.50;;;3.90;99.90;;;;;;5000514;28;20188;-80
2022/02/18 05:49:30;;;;;;;8.27;3.70;;;3.80;99.90;;;;;;5000349;28;20207;-78
2022/02/18 05:51:57;;;;;;;7.03;3.20;;;3.90;99.90;;;;;;5016931;28;20245;-77
2022/02/18 05:54:23;;;;;;;8.10;3.80;;;3.80;99.90;;;;;;4999152;28;20180;-77
2022/02/18 05:56:51;;;;;;;7.03;3.53;;;3.80;99.90;;;;;;4999642;28;20210;-80
2022/02/18 05:59:18;;;;;;;8.63;4.70;;;3.80;99.90;;;;;;4999710;28;20738;-77
2022/02/18 06:01:44;;;;;;;9.07;4.30;;;3.80;99.90;;;;;;5011915;28;21075;-81
2022/02/18 06:04:11;;;;;;;9.27;5.03;;;4.00;99.90;;;;;;5014184;28;20215;-77
2022/02/18 06:06:41;;;;;;;7.63;4.50;;;4.00;99.90;;;;;;5014829;28;20180;-77
2022/02/18 06:09:07;;;;;;;10.00;5.10;;;4.10;99.90;;;;;;5000068;28;20208;-77
2022/02/18 06:11:33;;;;;;;10.77;5.00;;;4.10;99.90;;;;;;5007490;28;20196;-78
2022/02/18 06:13:59;;;;;;;7.87;4.13;;;4.10;99.90;;;;;;5001346;28;20176;-76
2022/02/18 06:16:25;;;;;;;10.27;4.57;;;4.10;99.90;;;;;;4999361;28;20192;-79
2022/02/18 06:18:51;;;;;;;7.67;4.93;;;4.10;99.90;;;;;;5016346;28;20269;-81
2022/02/18 06:21:18;;;;;;;7.67;4.53;;;4.20;99.90;;;;;;5002517;28;20180;-77
2022/02/18 06:23:44;;;;;;;8.03;4.27;;;4.40;99.90;;;;;;4999566;28;20210;-75
2022/02/18 06:26:09;;;;;;;9.23;4.90;;;4.50;99.90;;;;;;5000026;28;20184;-78
2022/02/18 06:28:36;;;;;;;10.83;5.10;;;4.70;99.90;;;;;;5001867;28;20206;-79
2022/02/18 06:31:02;;;;;;;12.10;6.23;;;4.60;99.90;;;;;;4997706;28;20222;-77
2022/02/18 06:33:27;;;;;;;8.83;4.87;;;4.70;99.90;;;;;;4999762;28;20187;-80
2022/02/18 06:35:53;;;;;;;8.67;4.97;;;4.60;99.90;;;;;;5002095;28;20195;-79
2022/02/18 06:38:18;;;;;;;10.50;4.90;;;4.80;99.90;;;;;;5001805;28;20203;-79
2022/02/18 06:40:44;;;;;;;7.43;4.47;;;4.90;99.90;;;;;;5015426;28;20190;-79
2022/02/18 06:43:09;;;;;;;8.70;4.83;;;4.90;99.90;;;;;;4999358;28;20697;-78
2022/02/18 06:45:35;;;;;;;11.10;5.10;;;4.90;99.90;;;;;;5001869;28;20622;-79
2022/02/18 06:48:00;;;;;;;8.00;4.63;;;4.80;99.90;;;;;;5000361;28;20196;-78
2022/02/18 06:50:26;;;;;;;10.30;5.00;;;4.90;99.90;;;;;;5001361;28;20794;-78
2022/02/18 06:52:52;;;;;;;8.10;4.27;;;5.00;99.90;;;;;;5004706;28;20270;-79
2022/02/18 06:55:22;;;;;;;7.43;3.90;;;5.20;99.90;;;;;;5005220;28;20200;-78
2022/02/18 06:57:47;;;;;;;6.70;3.93;;;5.30;99.90;;;;;;5002633;28;20184;-79
2022/02/18 07:00:15;;;;;;;7.77;3.90;;;5.40;99.90;;;;;;5003460;28;20215;-79
2022/02/18 07:02:41;;;;;;;6.20;3.83;;;5.50;99.90;;;;;;5017331;28;20206;-79
2022/02/18 07:05:08;;;;;;;5.63;3.60;;;5.60;99.90;;;;;;4997953;28;20184;-79
2022/02/18 07:07:35;;;;;;;6.50;4.00;;;5.60;99.90;;;;;;4997212;28;20646;-78
2022/02/18 07:10:02;;;;;;;6.17;3.50;;;5.80;99.90;;;;;;5011868;28;20206;-77
2022/02/18 07:12:27;;;;;;;8.30;3.63;;;5.80;99.90;;;;;;5002588;28;20401;-77
2022/02/18 07:14:56;;;;;;;7.73;3.83;;;5.80;99.90;;;;;;4998429;28;20184;-79
2022/02/18 07:17:23;;;;;;;8.17;4.37;;;5.80;99.90;;;;;;4992751;28;20224;-79
2022/02/18 07:19:49;;;;;;;7.60;3.70;;;5.80;99.90;;;;;;4988689;28;20253;-80
2022/02/18 07:22:15;;;;;;;6.20;3.33;;;5.70;99.90;;;;;;4996898;28;20184;-77
2022/02/18 07:24:40;;;;;;;7.93;3.70;;;6.00;99.90;;;;;;5002409;28;20219;-79
2022/02/18 07:27:06;;;;;;;6.93;3.33;;;6.00;99.90;;;;;;4991610;28;20195;-78
2022/02/18 07:29:32;;;;;;;6.13;3.40;;;6.00;99.90;;;;;;4991348;28;20209;-78
2022/02/18 07:31:57;;;;;;;8.67;3.73;;;6.00;99.90;;;;;;4992453;28;20246;-79
2022/02/18 07:34:23;;;;;;;7.03;3.90;;;6.00;99.90;;;;;;4993938;28;20188;-77
2022/02/18 07:36:48;;;;;;;6.77;4.00;;;6.10;99.90;;;;;;5012876;28;20238;-78
2022/02/18 07:39:14;;;;;;;10.43;4.23;;;6.20;99.90;;;;;;4999761;28;20257;-78
2022/02/18 07:41:39;;;;;;;5.73;3.53;;;6.20;99.90;;;;;;4993994;28;20188;-78
2022/02/18 07:44:05;;;;;;;7.83;3.30;;;6.30;99.90;;;;;;4996002;28;20199;-78
2022/02/18 07:46:31;;;;;;;7.77;3.20;;;6.20;99.90;;;;;;5002354;28;20195;-78
2022/02/18 07:48:57;;;;;;;7.73;3.50;;;6.30;99.90;;;;;;4996730;28;20322;-78
2022/02/18 07:51:22;;;;;;;4.93;3.20;;;6.40;99.90;;;;;;4991648;28;20211;-79
2022/02/18 07:53:48;;;;;;;4.47;3.10;;;6.50;99.90;;;;;;4989710;28;20192;-78
2022/02/18 07:56:13;;;;;;;9.83;3.43;;;6.50;99.90;;;;;;4992892;28;20188;-79
2022/02/18 07:58:40;;;;;;;5.40;2.60;;;6.60;99.90;;;;;;5016013;28;20227;-78
2022/02/18 08:01:06;;;;;;;6.57;3.33;;;6.70;99.90;;;;;;5000279;28;20199;-79
2022/02/18 08:03:32;;;;;;;5.30;2.47;;;6.70;99.90;;;;;;5003846;28;20219;-78
2022/02/18 08:05:59;;;;;;;6.17;2.77;;;6.70;99.90;;;;;;5014333;28;20181;-79
2022/02/18 08:08:24;;;;;;;7.43;2.67;;;6.70;99.90;;;;;;5003536;28;20286;-79
2022/02/18 08:10:51;;;;;;;7.20;3.37;;;6.80;99.90;;;;;;5000706;28;20266;-80
2022/02/18 08:13:17;;;;;;;8.13;3.53;;;6.80;99.90;;;;;;5008402;28;20251;-79
2022/02/18 08:15:42;;;;;;;4.27;2.60;;;6.70;99.90;;;;;;4996269;28;20180;-79
2022/02/18 08:18:08;;;;;;;6.50;2.43;;;6.70;99.90;;;;;;5018362;28;20265;-79
2022/02/18 08:20:33;;;;;;;6.20;2.80;;;6.60;99.90;;;;;;5004424;28;20192;-78
2022/02/18 08:22:59;;;;;;;2.97;2.07;;;6.70;99.90;;;;;;5001869;28;20211;-79
2022/02/18 08:25:25;;;;;;;4.70;2.30;;;6.70;99.90;;;;;;5002220;28;20870;-78
2022/02/18 08:27:51;;;;;;;5.50;2.90;;;6.70;99.90;;;;;;5017453;28;20561;-79
2022/02/18 08:30:17;;;;;;;6.43;1.90;;;6.70;99.90;;;;;;4996409;28;20372;-78
2022/02/18 08:32:42;;;;;;;4.63;1.90;;;6.70;99.90;;;;;;5001470;28;20215;-78
2022/02/18 08:35:08;;;;;;;4.47;2.10;;;6.60;99.90;;;;;;5000412;28;20261;-78
2022/02/18 08:37:34;;;;;;;3.80;1.80;;;6.60;99.90;;;;;;4994129;28;20184;-79
2022/02/18 08:40:00;;;;;;;6.57;3.53;;;6.60;99.90;;;;;;5000870;28;20572;-81
2022/02/18 08:42:26;;;;;;;9.10;5.93;;;6.60;99.90;;;;;;4997368;28;20188;-80
2022/02/18 08:44:51;;;;;;;5.80;3.80;;;6.60;99.90;;;;;;4999278;28;20224;-78
2022/02/18 08:47:18;;;;;;;10.70;4.30;;;6.50;99.90;;;;;;5000380;28;20185;-79
2022/02/18 08:49:43;;;;;;;8.30;3.57;;;6.50;99.90;;;;;;5003110;28;20638;-79
2022/02/18 08:52:09;;;;;;;10.33;3.80;;;6.50;99.90;;;;;;5005123;28;20191;-77
2022/02/18 08:54:35;;;;;;;4.73;3.73;;;6.50;99.90;;;;;;5013049;28;20228;-81
2022/02/18 08:57:00;;;;;;;7.73;3.40;;;6.50;99.90;;;;;;5017068;28;20199;-79
2022/02/18 08:59:26;;;;;;;3.97;3.20;;;6.50;99.90;;;;;;5003474;28;20218;-78
2022/02/18 09:01:52;;;;;;;4.13;2.87;;;6.50;99.90;;;;;;4997387;28;20200;-78
2022/02/18 09:04:18;;;;;;;5.33;2.53;;;6.50;99.90;;;;;;5001463;28;20655;-78
2022/02/18 09:06:43;;;;;;;4.40;3.07;;;6.60;99.90;;;;;;4993655;28;20933;-76
2022/02/18 09:09:09;;;;;;;6.60;2.50;;;6.60;99.90;;;;;;5017535;28;20730;-81
2022/02/18 09:11:34;;;;;;;4.50;2.00;;;6.70;99.90;;;;;;4996618;28;20255;-80
2022/02/18 09:14:00;;;;;;;7.33;2.77;;;6.70;99.90;;;;;;5000924;28;20188;-81
2022/02/18 09:16:27;;;;;;;4.17;2.17;;;6.70;99.90;;;;;;4999464;28;20184;-77
2022/02/18 09:18:52;;;;;;;3.93;1.60;;;6.80;99.90;;;;;;5002584;28;20219;-78
2022/02/18 09:21:18;;;;;;;4.70;1.47;;;6.80;99.90;;;;;;5018246;28;20606;-79
2022/02/18 09:23:43;;;;;;;2.13;1.53;;;6.80;99.90;;;;;;5005178;28;20210;-78
2022/02/18 09:26:10;;;;;;;2.83;1.50;;;6.80;99.90;;;;;;5012359;28;20227;-78
2022/02/18 09:28:36;;;;;;;3.57;2.07;;;6.90;99.90;;;;;;4993545;28;20220;-78
2022/02/18 09:31:01;;;;;;;4.13;1.90;;;6.90;99.90;;;;;;5021908;28;20666;-78
2022/02/18 09:33:29;;;;;;;5.97;2.17;;;6.90;99.90;;;;;;4997819;28;20202;-79
2022/02/18 09:35:55;;;;;;;7.80;2.30;;;6.90;99.90;;;;;;4996356;28;20482;-78
2022/02/18 09:38:20;;;;;;;6.47;3.10;;;6.80;99.90;;;;;;5002380;28;20685;-79
2022/02/18 09:40:46;;;;;;;4.07;2.13;;;6.80;99.90;;;;;;5011528;28;20191;-77
2022/02/18 09:43:14;;;;;;;4.13;2.43;;;6.70;99.90;;;;;;4994253;28;20667;-78
2022/02/18 09:45:40;;;;;;;9.07;2.87;;;6.80;99.90;;;;;;5010338;28;20192;-79
2022/02/18 09:48:06;;;;;;;4.43;2.37;;;6.70;99.90;;;;;;5017246;28;20188;-78
2022/02/18 09:50:32;;;;;;;3.80;2.03;;;6.60;99.90;;;;;;4997041;28;20191;-77
2022/02/18 09:52:57;;;;;;;3.60;1.73;;;6.60;99.90;;;;;;5016535;28;20184;-78
2022/02/18 09:55:23;;;;;;;4.03;1.80;;;6.70;99.90;;;;;;5019602;28;20184;-78
2022/02/18 09:57:53;;;;;;;4.23;1.80;;;6.70;99.90;;;;;;5002373;28;20184;-79
2022/02/18 10:00:20;;;;;;;2.80;2.10;;;6.70;99.90;;;;;;5004076;28;20214;-77
2022/02/18 10:02:48;;;;;;;3.93;1.70;;;6.70;99.90;;;;;;5020067;28;20724;-77
2022/02/18 10:05:14;;;;;;;5.60;2.10;;;6.60;99.90;;;;;;5004271;28;20658;-77
2022/02/18 10:08:23;;;;;;;3.97;1.83;;;6.60;99.90;;;;;;5005592;28;20198;-77
2022/02/18 10:11:07;;;;;;;4.53;1.50;;;6.60;99.90;;;;;;5003572;28;20222;-77
2022/02/18 10:13:37;;;;;;;6.20;2.03;;;6.60;99.90;;;;;;5000807;28;20195;-78
2022/02/18 10:16:09;;;;;;;5.23;2.03;;;6.60;99.90;;;;;;4993595;28;20184;-77
2022/02/18 10:18:48;;;;;;;5.60;1.73;;;6.60;99.90;;;;;;5009374;28;20617;-78
2022/02/18 10:21:20;;;;;;;3.17;1.37;;;6.60;99.90;;;;;;5010843;28;20254;-79
2022/02/18 10:23:46;;;;;;;4.43;1.70;;;6.60;99.90;;;;;;4997037;28;20199;-79
2022/02/18 10:26:12;;;;;;;6.23;1.97;;;6.70;99.90;;;;;;5021867;28;20180;-80
2022/02/18 10:28:39;;;;;;;6.57;1.80;;;6.70;99.90;;;;;;5007320;28;20608;-80
2022/02/18 10:31:06;;;;;;;9.30;3.07;;;6.80;99.90;;;;;;5006061;28;20236;-77
2022/02/18 10:33:37;;;;;;;85.90;36.70;;;6.80;99.90;;;;;;5005871;28;20270;-79
2022/02/18 10:36:06;;;;;;;31.60;14.10;;;6.80;99.90;;;;;;5018584;28;20211;-77
2022/02/18 10:38:39;;;;;;;23.43;11.67;;;6.80;99.90;;;;;;5017487;28;20222;-78
2022/02/18 10:41:23;;;;;;;25.93;12.93;;;6.80;99.90;;;;;;5005761;28;20188;-81
2022/02/18 10:43:50;;;;;;;14.80;7.00;;;6.80;99.90;;;;;;5004493;28;20232;-78
2022/02/18 10:46:16;;;;;;;10.67;4.30;;;6.70;99.90;;;;;;5004284;28;20550;-81
2022/02/18 10:48:48;;;;;;;7.83;2.43;;;6.70;99.90;;;;;;5002897;28;20212;-78
2022/02/18 10:51:19;;;;;;;10.50;3.93;;;6.60;99.90;;;;;;5002236;28;20256;-78
2022/02/18 10:53:49;;;;;;;12.03;6.27;;;6.60;99.90;;;;;;5003385;28;20180;-78
2022/02/18 10:56:17;;;;;;;6.77;3.07;;;6.60;99.90;;;;;;5019849;28;20196;-80
2022/02/18 10:58:52;;;;;;;17.00;8.23;;;6.60;99.90;;;;;;5004484;28;20195;-80
2022/02/18 11:01:22;;;;;;;15.93;7.93;;;6.60;99.90;;;;;;5002252;28;20185;-78
2022/02/18 11:04:03;;;;;;;13.00;5.97;;;6.60;99.90;;;;;;5002266;28;20219;-78
2022/02/18 11:06:34;;;;;;;13.63;6.10;;;6.60;99.90;;;;;;5003492;28;20314;-79
2022/02/18 11:09:08;;;;;;;11.33;5.63;;;6.50;99.90;;;;;;5001239;28;20302;-75
2022/02/18 11:11:56;;;;;;;15.87;7.13;;;6.60;99.90;;;;;;4999441;28;20195;-78
2022/02/18 11:14:21;;;;;;;12.20;3.83;;;6.50;99.90;;;;;;5013487;28;20195;-80
2022/02/18 11:16:52;;;;;;;48.50;25.30;;;6.50;99.90;;;;;;5006584;28;20329;-80
2022/02/18 11:19:20;;;;;;;26.80;12.63;;;6.50;99.90;;;;;;4996792;28;20854;-81
2022/02/18 11:21:45;;;;;;;16.17;6.30;;;6.60;99.90;;;;;;5015133;28;20187;-78
2022/02/18 11:24:15;;;;;;;12.17;5.50;;;6.60;99.90;;;;;;5013862;28;20215;-81
2022/02/18 11:26:42;;;;;;;23.93;10.27;;;6.60;99.90;;;;;;5011629;28;20210;-79
2022/02/18 11:29:08;;;;;;;25.03;10.23;;;6.60;99.90;;;;;;4996572;28;20204;-76
2022/02/18 11:32:01;;;;;;;20.43;8.40;;;6.60;99.90;;;;;;4998198;28;20191;-78
2022/02/18 11:34:58;;;;;;;8.73;3.83;;;6.50;99.90;;;;;;5012545;28;20704;-80
2022/02/18 11:38:08;;;;;;;11.47;4.07;;;6.60;99.90;;;;;;4999983;28;20204;-80
2022/02/18 11:40:46;;;;;;;6.97;2.30;;;6.70;99.90;;;;;;4999042;28;20203;-78
2022/02/18 11:43:42;;;;;;;10.33;4.10;;;6.70;99.90;;;;;;5000259;28;20212;-77
2022/02/18 11:46:08;;;;;;;7.73;3.47;;;6.80;99.90;;;;;;5015404;28;20199;-82
2022/02/18 11:48:43;;;;;;;9.67;5.00;;;6.90;99.90;;;;;;4997145;28;20206;-80
2022/02/18 11:51:11;;;;;;;8.40;4.90;;;6.90;99.90;;;;;;4997176;28;20326;-76
2022/02/18 11:53:49;;;;;;;5.73;3.47;;;6.80;99.90;;;;;;5011406;28;20188;-79
2022/02/18 11:56:27;;;;;;;4.90;2.00;;;7.00;99.90;;;;;;5011323;28;20198;-78
2022/02/18 11:59:03;;;;;;;2.70;1.23;;;7.20;99.90;;;;;;4995729;28;21125;-82
2022/02/18 12:02:02;;;;;;;6.53;1.50;;;7.20;99.90;;;;;;4997311;28;20183;-79
2022/02/18 12:04:28;;;;;;;5.00;2.03;;;7.30;99.90;;;;;;5012057;28;20587;-78
2022/02/18 12:07:22;;;;;;;4.57;1.90;;;7.50;99.90;;;;;;5005231;28;20188;-80
2022/02/18 12:09:50;;;;;;;4.70;1.33;;;7.50;99.90;;;;;;4997345;28;21231;-78
2022/02/18 12:12:37;;;;;;;4.50;1.20;;;7.70;99.90;;;;;;4998868;28;20190;-77
2022/02/18 12:15:11;;;;;;;5.23;1.80;;;7.80;99.90;;;;;;4997754;28;20549;-80
2022/02/18 12:17:41;;;;;;;3.03;0.90;;;7.90;99.90;;;;;;4996672;28;20517;-80
2022/02/18 12:20:39;;;;;;;5.20;2.40;;;8.10;99.90;;;;;;5010857;28;20250;-75
2022/02/18 12:23:28;;;;;;;5.67;1.57;;;8.20;99.90;;;;;;4979438;28;20273;-80
2022/02/18 12:26:34;;;;;;;4.60;1.43;;;8.30;99.90;;;;;;4997700;28;20172;-79
2022/02/18 12:29:15;;;;;;;3.33;1.33;;;8.30;99.90;;;;;;4925965;29;20418;-78
2022/02/18 12:31:50;;;;;;;2.83;1.93;;;8.40;99.90;;;;;;4919501;29;20824;-77
2022/02/18 12:34:29;;;;;;;2.20;0.80;;;8.40;99.90;;;;;;4972416;28;20198;-77
2022/02/18 12:36:55;;;;;;;2.70;1.00;;;8.50;99.90;;;;;;4995996;28;20192;-77
2022/02/18 12:39:54;;;;;;;3.73;1.17;;;8.50;99.90;;;;;;5013354;28;20207;-82
2022/02/18 12:42:21;;;;;;;2.10;0.70;;;8.60;99.90;;;;;;4997749;28;20291;-79
2022/02/18 12:44:58;;;;;;;1.17;0.60;;;8.80;99.90;;;;;;4997301;28;20212;-79
2022/02/18 12:47:26;;;;;;;4.57;1.43;;;8.90;99.90;;;;;;4997368;28;20223;-79
2022/02/18 12:49:55;;;;;;;2.03;0.90;;;8.80;99.90;;;;;;5011860;28;20200;-79
2022/02/18 12:52:25;;;;;;;1.90;1.00;;;8.90;99.90;;;;;;4993970;28;20208;-77
2022/02/18 12:54:59;;;;;;;1.63;1.13;;;9.00;99.90;;;;;;4996629;28;20214;-78
2022/02/18 12:57:27;;;;;;;1.20;0.70;;;9.10;99.90;;;;;;4998397;28;20274;-80
2022/02/18 12:59:53;;;;;;;2.87;0.77;;;9.30;99.90;;;;;;4994089;28;20223;-79